Time;durP1;ratioP1;P1;durP2;ratioP2;P2;SDS_P1;SDS_P2;PMS_P1;PMS_P2;Temp;Humidity;BMP_temperature;BMP_pressure;BME280_temperature;BME280_humidity;BME280_pressure;Samples;Min_cycle;Max_cycle;Signal;HPM_P1;HPM_P2
2024/01/30 00:01:52;;;;;;;28.75;21.63;;;5.70;99.90;;;;;;5058602;28;20115;-78
2024/01/30 00:04:18;;;;;;;30.80;22.60;;;5.90;99.90;;;;;;5058247;28;20528;-78
2024/01/30 00:06:44;;;;;;;30.00;21.80;;;5.80;99.90;;;;;;5044647;28;20032;-78
2024/01/30 00:09:10;;;;;;;27.67;21.48;;;5.80;99.90;;;;;;5042238;28;20041;-78
2024/01/30 00:11:36;;;;;;;26.65;21.90;;;5.80;99.90;;;;;;5060492;28;20124;-78
2024/01/30 00:14:03;;;;;;;29.63;22.48;;;5.80;99.90;;;;;;5060771;28;20317;-78
2024/01/30 00:16:29;;;;;;;30.52;21.85;;;5.80;99.90;;;;;;5041820;28;20041;-78
2024/01/30 00:18:55;;;;;;;31.25;22.90;;;5.90;99.90;;;;;;5058809;28;20446;-78
2024/01/30 00:21:21;;;;;;;28.60;21.00;;;5.80;99.90;;;;;;5058314;28;20470;-78
2024/01/30 00:23:47;;;;;;;32.75;23.60;;;5.80;99.90;;;;;;5043974;28;20075;-78
2024/01/30 00:26:14;;;;;;;29.95;22.67;;;5.90;99.90;;;;;;5057743;28;20067;-78
2024/01/30 00:28:41;;;;;;;30.25;21.48;;;5.90;99.90;;;;;;5039279;28;20044;-78
2024/01/30 00:31:07;;;;;;;34.50;23.40;;;5.80;99.90;;;;;;5057914;28;20032;-78
2024/01/30 00:33:33;;;;;;;31.02;22.80;;;5.90;99.90;;;;;;5038167;28;20570;-78
2024/01/30 00:35:58;;;;;;;30.95;22.38;;;5.80;99.90;;;;;;5061703;28;20036;-78
2024/01/30 00:38:24;;;;;;;30.95;22.15;;;5.70;99.90;;;;;;5038691;28;20286;-78
2024/01/30 00:40:50;;;;;;;30.65;22.00;;;5.70;99.90;;;;;;5039046;28;20067;-78
2024/01/30 00:43:15;;;;;;;30.63;22.20;;;5.70;99.90;;;;;;5041337;28;20036;-78
2024/01/30 00:45:43;;;;;;;29.15;21.70;;;5.50;99.90;;;;;;5042777;28;20119;-78
2024/01/30 00:48:09;;;;;;;30.10;22.73;;;5.60;99.90;;;;;;5056894;28;20047;-78
2024/01/30 00:50:34;;;;;;;31.90;22.75;;;5.50;99.90;;;;;;5043700;28;20354;-78
2024/01/30 00:53:00;;;;;;;29.75;22.98;;;5.60;99.90;;;;;;5059227;28;20134;-78
2024/01/30 00:55:26;;;;;;;30.95;22.80;;;5.50;99.90;;;;;;5058257;28;20482;-78
2024/01/30 00:57:52;;;;;;;32.67;23.25;;;5.60;99.90;;;;;;5043021;28;20040;-78
2024/01/30 01:00:18;;;;;;;30.38;23.30;;;5.50;99.90;;;;;;5043442;28;20071;-78
2024/01/30 01:02:44;;;;;;;33.78;23.95;;;5.50;99.90;;;;;;5040654;28;20033;-78
2024/01/30 01:05:10;;;;;;;31.77;23.65;;;5.50;99.90;;;;;;5042932;28;20040;-78
2024/01/30 01:07:36;;;;;;;32.42;23.77;;;5.50;99.90;;;;;;5040119;28;20040;-77
2024/01/30 01:10:02;;;;;;;31.98;23.58;;;5.50;99.90;;;;;;5058161;28;20083;-78
2024/01/30 01:12:28;;;;;;;34.70;25.23;;;5.60;99.90;;;;;;5058090;28;20445;-78
2024/01/30 01:14:53;;;;;;;31.40;23.42;;;5.50;99.90;;;;;;5059655;28;20028;-77
2024/01/30 01:17:19;;;;;;;32.20;23.55;;;5.60;99.90;;;;;;5037722;28;20045;-78
2024/01/30 01:19:45;;;;;;;31.23;23.90;;;5.60;99.90;;;;;;5041733;28;20058;-78
2024/01/30 01:22:11;;;;;;;36.88;25.42;;;5.60;99.90;;;;;;5058643;28;20032;-78
2024/01/30 01:24:37;;;;;;;33.83;25.08;;;5.80;99.90;;;;;;5058475;28;20491;-78
2024/01/30 01:27:03;;;;;;;33.40;24.60;;;5.70;99.90;;;;;;5039960;28;20076;-78
2024/01/30 01:29:29;;;;;;;34.22;24.58;;;5.70;99.90;;;;;;5056415;28;20032;-78
2024/01/30 01:31:55;;;;;;;34.35;25.08;;;5.70;99.90;;;;;;5040861;28;20094;-78
2024/01/30 01:34:21;;;;;;;32.00;24.30;;;5.60;99.90;;;;;;5057708;28;20051;-78
2024/01/30 01:36:47;;;;;;;33.72;24.58;;;5.70;99.90;;;;;;5038702;28;20041;-78
2024/01/30 01:39:13;;;;;;;32.45;25.15;;;5.70;99.90;;;;;;5057982;28;20040;-78
2024/01/30 01:41:39;;;;;;;36.53;24.88;;;5.70;99.90;;;;;;5057983;28;20044;-77
2024/01/30 01:44:05;;;;;;;37.28;23.50;;;5.80;99.90;;;;;;5039571;28;20059;-78
2024/01/30 01:46:33;;;;;;;36.10;24.75;;;5.80;99.90;;;;;;5033566;28;20282;-78
2024/01/30 01:48:59;;;;;;;34.15;24.33;;;5.70;99.90;;;;;;5040153;28;20229;-78
2024/01/30 01:51:27;;;;;;;33.38;24.55;;;5.70;99.90;;;;;;5057213;28;20071;-78
2024/01/30 01:54:03;;;;;;;34.03;23.67;;;5.60;99.90;;;;;;5040076;28;20044;-78
2024/01/30 01:56:30;;;;;;;34.10;23.92;;;5.70;99.90;;;;;;5038722;28;20032;-78
2024/01/30 01:58:59;;;;;;;36.03;24.85;;;5.60;99.90;;;;;;5058386;28;20895;-78
2024/01/30 02:01:27;;;;;;;31.00;24.25;;;5.70;99.90;;;;;;5044099;28;20395;-78
2024/01/30 02:03:52;;;;;;;35.00;24.45;;;5.80;99.90;;;;;;5037531;28;20074;-78
2024/01/30 02:06:19;;;;;;;33.15;24.05;;;5.70;99.90;;;;;;5057043;28;20283;-78
2024/01/30 02:08:44;;;;;;;31.58;23.83;;;5.70;99.90;;;;;;5042300;28;21015;-78
2024/01/30 02:11:11;;;;;;;33.38;24.83;;;5.70;99.90;;;;;;5038557;28;20457;-78
2024/01/30 02:13:37;;;;;;;32.00;23.33;;;5.70;99.90;;;;;;5041950;28;20048;-78
2024/01/30 02:16:03;;;;;;;34.40;24.23;;;5.80;99.90;;;;;;5058932;28;20176;-78
2024/01/30 02:18:29;;;;;;;32.50;24.20;;;5.70;99.90;;;;;;5055230;28;20036;-78
2024/01/30 02:20:58;;;;;;;33.45;23.73;;;5.70;99.90;;;;;;5044319;28;20423;-78
2024/01/30 02:23:25;;;;;;;37.00;24.35;;;5.70;99.90;;;;;;5057455;28;20037;-78
2024/01/30 02:25:52;;;;;;;31.80;23.83;;;5.70;99.90;;;;;;5067967;28;20048;-78
2024/01/30 02:28:19;;;;;;;39.58;23.75;;;5.70;99.90;;;;;;5055677;28;20040;-78
2024/01/30 02:30:46;;;;;;;33.20;24.67;;;5.70;99.90;;;;;;5039724;28;20486;-78
2024/01/30 02:33:12;;;;;;;30.95;23.02;;;5.80;99.90;;;;;;5054026;28;20128;-78
2024/01/30 02:35:37;;;;;;;31.42;22.55;;;5.70;99.90;;;;;;5041538;28;20044;-78
2024/01/30 02:38:04;;;;;;;31.88;23.88;;;5.70;99.90;;;;;;5038349;28;20032;-78
2024/01/30 02:40:30;;;;;;;31.27;24.52;;;5.90;99.90;;;;;;5041595;28;20063;-78
2024/01/30 02:42:56;;;;;;;33.65;23.17;;;5.90;99.90;;;;;;5038931;28;20036;-78
2024/01/30 02:45:22;;;;;;;31.23;23.30;;;5.80;99.90;;;;;;5056172;28;20069;-78
2024/01/30 02:47:47;;;;;;;30.73;23.02;;;5.90;99.90;;;;;;5054838;28;20048;-78
2024/01/30 02:50:14;;;;;;;30.77;22.80;;;5.90;99.90;;;;;;5039893;28;20044;-78
2024/01/30 02:52:40;;;;;;;31.10;23.23;;;5.90;99.90;;;;;;5040442;28;20483;-78
2024/01/30 02:55:06;;;;;;;29.35;22.52;;;6.00;99.90;;;;;;5041910;28;20047;-78
2024/01/30 02:57:32;;;;;;;32.65;23.60;;;5.90;99.90;;;;;;5055373;28;20044;-78
2024/01/30 02:59:58;;;;;;;30.73;21.92;;;5.80;99.90;;;;;;5055756;28;20516;-78
2024/01/30 03:02:24;;;;;;;29.52;22.98;;;5.80;99.90;;;;;;5037919;28;20059;-78
2024/01/30 03:04:49;;;;;;;29.73;22.70;;;5.90;99.90;;;;;;5055669;28;20047;-78
2024/01/30 03:07:15;;;;;;;33.83;23.05;;;5.80;99.90;;;;;;5037893;28;20040;-78
2024/01/30 03:09:44;;;;;;;28.88;21.83;;;5.90;99.90;;;;;;5057253;28;20503;-78
2024/01/30 03:12:10;;;;;;;32.45;22.15;;;5.90;99.90;;;;;;5037691;28;20079;-78
2024/01/30 03:14:36;;;;;;;29.70;22.13;;;5.90;99.90;;;;;;5034831;28;20114;-78
2024/01/30 03:17:02;;;;;;;31.25;22.52;;;5.90;99.90;;;;;;5055308;28;20488;-78
2024/01/30 03:19:28;;;;;;;29.60;21.23;;;6.00;99.90;;;;;;5052898;28;20101;-78
2024/01/30 03:21:54;;;;;;;28.73;22.10;;;6.00;99.90;;;;;;5055872;28;20040;-78
2024/01/30 03:24:20;;;;;;;31.42;21.23;;;6.00;99.90;;;;;;5039444;28;20510;-78
2024/01/30 03:26:46;;;;;;;28.65;22.15;;;6.00;99.90;;;;;;5054431;28;20064;-78
2024/01/30 03:29:12;;;;;;;31.85;21.10;;;6.00;99.90;;;;;;5039990;28;20062;-78
2024/01/30 03:31:39;;;;;;;28.58;20.83;;;6.10;99.90;;;;;;5053163;28;20040;-78
2024/01/30 03:34:05;;;;;;;30.17;21.05;;;6.10;99.90;;;;;;5054006;28;20458;-78
2024/01/30 03:36:32;;;;;;;28.67;21.52;;;6.10;99.90;;;;;;5054818;28;20469;-78
2024/01/30 03:38:59;;;;;;;31.60;20.90;;;6.10;99.90;;;;;;5035497;28;20047;-78
2024/01/30 03:41:24;;;;;;;29.00;20.85;;;6.20;99.90;;;;;;5037412;28;20051;-78
2024/01/30 03:43:50;;;;;;;30.02;20.73;;;6.10;99.90;;;;;;5056151;28;20036;-78
2024/01/30 03:46:16;;;;;;;26.92;20.95;;;6.20;99.90;;;;;;5035236;28;20597;-78
2024/01/30 03:48:42;;;;;;;26.20;19.55;;;6.10;99.90;;;;;;5055949;28;20098;-78
2024/01/30 03:51:09;;;;;;;28.38;21.20;;;6.20;99.90;;;;;;5035321;28;20458;-77
2024/01/30 03:53:35;;;;;;;28.13;20.48;;;6.20;99.90;;;;;;5055311;28;20243;-78
2024/01/30 03:56:01;;;;;;;31.05;20.85;;;6.20;99.90;;;;;;5056490;28;20110;-78
2024/01/30 03:58:26;;;;;;;26.80;20.45;;;6.30;99.90;;;;;;5036062;28;20032;-77
2024/01/30 04:00:52;;;;;;;29.50;21.10;;;6.30;99.90;;;;;;5037612;28;20033;-77
2024/01/30 04:03:18;;;;;;;29.38;21.15;;;6.30;99.90;;;;;;5053427;28;20198;-77
2024/01/30 04:05:44;;;;;;;27.92;19.92;;;6.30;99.90;;;;;;5055820;28;20040;-78
2024/01/30 04:08:10;;;;;;;27.38;20.95;;;6.40;99.90;;;;;;5039562;28;20045;-78
2024/01/30 04:10:36;;;;;;;27.27;20.00;;;6.50;99.90;;;;;;5056106;28;20044;-78
2024/01/30 04:13:01;;;;;;;29.00;20.52;;;6.60;99.90;;;;;;5037941;28;20044;-78
2024/01/30 04:15:29;;;;;;;28.92;20.73;;;6.50;99.90;;;;;;5056128;28;20040;-78
2024/01/30 04:17:58;;;;;;;30.02;20.38;;;6.60;99.90;;;;;;5055138;28;20110;-77
2024/01/30 04:20:24;;;;;;;26.23;18.77;;;6.70;99.90;;;;;;5055865;28;20606;-78
2024/01/30 04:22:50;;;;;;;34.65;20.83;;;6.80;99.90;;;;;;5041851;28;20035;-78
2024/01/30 04:25:16;;;;;;;26.60;20.45;;;6.70;99.90;;;;;;5056749;28;20063;-78
2024/01/30 04:27:41;;;;;;;28.58;19.35;;;6.70;99.90;;;;;;5058518;28;20043;-77
2024/01/30 04:30:08;;;;;;;27.55;18.63;;;6.80;99.90;;;;;;5058457;28;20633;-78
2024/01/30 04:32:34;;;;;;;28.77;20.05;;;6.90;99.90;;;;;;5038099;28;20040;-78
2024/01/30 04:35:00;;;;;;;24.98;18.77;;;6.80;99.90;;;;;;5038702;28;20129;-77
2024/01/30 04:37:25;;;;;;;23.60;18.73;;;6.80;99.90;;;;;;5042720;28;20045;-78
2024/01/30 04:39:51;;;;;;;26.58;18.55;;;6.90;99.90;;;;;;5040314;28;20076;-78
2024/01/30 04:42:17;;;;;;;27.70;18.67;;;6.90;99.90;;;;;;5040266;28;20041;-78
2024/01/30 04:44:43;;;;;;;23.70;16.60;;;6.90;99.90;;;;;;5043894;28;20296;-78
2024/01/30 04:47:11;;;;;;;23.33;17.90;;;7.10;99.90;;;;;;5039491;28;20807;-78
2024/01/30 04:49:39;;;;;;;26.60;18.52;;;7.10;99.90;;;;;;5041294;28;20047;-78
2024/01/30 04:52:05;;;;;;;26.17;17.42;;;7.00;99.90;;;;;;5037373;28;20144;-78
2024/01/30 04:54:31;;;;;;;25.17;16.20;;;7.00;99.90;;;;;;5037352;28;20087;-78
2024/01/30 04:56:58;;;;;;;22.42;16.70;;;7.10;99.90;;;;;;5040925;28;20487;-78
2024/01/30 04:59:24;;;;;;;23.23;16.45;;;7.10;99.90;;;;;;5041902;28;20036;-78
2024/01/30 05:01:49;;;;;;;21.27;15.88;;;7.10;99.90;;;;;;5039287;28;20040;-78
2024/01/30 05:04:15;;;;;;;24.23;16.75;;;7.10;99.90;;;;;;5057093;28;20066;-77
2024/01/30 05:06:41;;;;;;;22.10;15.27;;;7.00;99.90;;;;;;5057617;28;20100;-77
2024/01/30 05:09:07;;;;;;;21.52;16.27;;;7.10;99.90;;;;;;5057367;28;20272;-78
2024/01/30 05:11:38;;;;;;;22.30;15.23;;;7.10;99.90;;;;;;5039470;28;20514;-78
2024/01/30 05:14:04;;;;;;;27.10;16.50;;;7.10;99.90;;;;;;5056575;28;20548;-78
2024/01/30 05:16:30;;;;;;;23.95;16.10;;;7.10;99.90;;;;;;5054614;28;20040;-78
2024/01/30 05:18:55;;;;;;;25.83;15.93;;;7.10;99.90;;;;;;5038203;28;20083;-78
2024/01/30 05:21:21;;;;;;;24.20;15.48;;;7.20;99.90;;;;;;5039825;28;20097;-77
2024/01/30 05:23:47;;;;;;;21.80;15.48;;;7.10;99.90;;;;;;5039129;28;20115;-78
2024/01/30 05:26:12;;;;;;;22.88;16.00;;;7.10;99.90;;;;;;5057013;28;20151;-78
2024/01/30 05:28:38;;;;;;;21.65;15.82;;;7.10;99.90;;;;;;5057302;28;20052;-77
2024/01/30 05:31:04;;;;;;;24.33;16.73;;;7.20;99.90;;;;;;5055783;28;20032;-78
2024/01/30 05:33:29;;;;;;;20.38;15.13;;;7.10;99.90;;;;;;5057341;28;20056;-77
2024/01/30 05:35:55;;;;;;;21.60;15.55;;;7.10;99.90;;;;;;5057051;28;20083;-78
2024/01/30 05:38:21;;;;;;;22.95;15.70;;;7.10;99.90;;;;;;5040813;28;20406;-78
2024/01/30 05:40:46;;;;;;;24.10;15.98;;;7.10;99.90;;;;;;5057801;28;20036;-78
2024/01/30 05:43:12;;;;;;;24.77;15.75;;;7.20;99.90;;;;;;5038903;28;20683;-77
2024/01/30 05:45:38;;;;;;;23.10;15.63;;;7.10;99.90;;;;;;5040902;28;20562;-77
2024/01/30 05:48:04;;;;;;;21.85;15.80;;;7.10;99.90;;;;;;5055885;28;20282;-78
2024/01/30 05:50:30;;;;;;;21.92;16.33;;;7.00;99.90;;;;;;5037485;28;20040;-77
2024/01/30 05:52:56;;;;;;;22.33;15.77;;;7.10;99.90;;;;;;5037398;28;20040;-78
2024/01/30 05:55:22;;;;;;;23.70;15.90;;;7.10;99.90;;;;;;5055807;28;20557;-77
2024/01/30 05:57:47;;;;;;;21.40;15.27;;;7.10;99.90;;;;;;5054895;28;20460;-78
2024/01/30 06:00:14;;;;;;;20.98;14.68;;;7.20;99.90;;;;;;5040553;28;20182;-78
2024/01/30 06:02:39;;;;;;;21.63;15.30;;;7.20;99.90;;;;;;5052521;28;20025;-78
2024/01/30 06:05:05;;;;;;;21.05;14.32;;;7.20;99.90;;;;;;5054726;28;20118;-78
2024/01/30 06:07:31;;;;;;;21.83;15.30;;;7.30;99.90;;;;;;5057029;28;20032;-77
2024/01/30 06:09:57;;;;;;;19.73;14.13;;;7.30;99.90;;;;;;5058627;28;20040;-78
2024/01/30 06:12:23;;;;;;;21.48;15.43;;;7.20;99.90;;;;;;5039087;28;20530;-78
2024/01/30 06:14:49;;;;;;;21.02;14.48;;;7.30;99.90;;;;;;5040163;28;20033;-78
2024/01/30 06:17:14;;;;;;;19.73;13.98;;;7.30;99.90;;;;;;5051234;28;20125;-78
2024/01/30 06:19:40;;;;;;;20.65;14.88;;;7.20;99.90;;;;;;5040021;28;20443;-78
2024/01/30 06:22:06;;;;;;;20.25;14.65;;;7.30;99.90;;;;;;5053016;28;20089;-77
2024/01/30 06:24:33;;;;;;;23.60;14.23;;;7.30;99.90;;;;;;5039960;28;20041;-78
2024/01/30 06:26:59;;;;;;;19.83;14.55;;;7.30;99.90;;;;;;5039093;28;20400;-78
2024/01/30 06:29:26;;;;;;;19.58;13.52;;;7.30;99.90;;;;;;5037318;28;20040;-78
2024/01/30 06:31:52;;;;;;;20.58;14.20;;;7.30;99.90;;;;;;5039912;28;20546;-78
2024/01/30 06:34:18;;;;;;;20.75;14.45;;;7.30;99.90;;;;;;5048756;28;20041;-78
2024/01/30 06:36:44;;;;;;;18.38;13.77;;;7.40;99.90;;;;;;5056160;28;20251;-78
2024/01/30 06:39:09;;;;;;;21.67;14.57;;;7.40;99.90;;;;;;5039393;28;20041;-78
2024/01/30 06:41:35;;;;;;;18.83;13.85;;;7.40;99.90;;;;;;5057299;28;20464;-77
2024/01/30 06:44:03;;;;;;;21.17;14.20;;;7.40;99.90;;;;;;5055199;28;20040;-77
2024/01/30 06:46:29;;;;;;;21.05;14.80;;;7.50;99.90;;;;;;5039739;28;20050;-78
2024/01/30 06:48:55;;;;;;;19.98;14.18;;;7.50;99.90;;;;;;5054977;28;20367;-78
2024/01/30 06:51:21;;;;;;;19.75;13.25;;;7.50;99.90;;;;;;5037581;28;20040;-77
2024/01/30 06:53:47;;;;;;;17.13;13.10;;;7.60;99.90;;;;;;5057245;28;20411;-78
2024/01/30 06:56:15;;;;;;;18.77;13.20;;;7.50;99.90;;;;;;5038742;28;20036;-78
2024/01/30 06:58:41;;;;;;;19.67;13.60;;;7.50;99.90;;;;;;5039508;28;20562;-78
2024/01/30 07:01:06;;;;;;;23.33;14.00;;;7.60;99.90;;;;;;5037491;28;20123;-78
2024/01/30 07:03:34;;;;;;;18.92;13.65;;;7.70;99.90;;;;;;5053793;28;20274;-78
2024/01/30 07:06:00;;;;;;;21.15;13.85;;;7.60;99.90;;;;;;5035899;28;21537;-78
2024/01/30 07:08:25;;;;;;;20.60;14.27;;;7.60;99.90;;;;;;5040580;28;20029;-78
2024/01/30 07:10:55;;;;;;;20.42;13.48;;;7.60;99.90;;;;;;5036926;28;20125;-78
2024/01/30 07:13:20;;;;;;;16.90;12.63;;;7.60;99.90;;;;;;5033813;28;20142;-78
2024/01/30 07:15:46;;;;;;;17.42;13.68;;;7.60;99.90;;;;;;5034036;28;20631;-78
2024/01/30 07:18:13;;;;;;;18.48;13.18;;;7.60;99.90;;;;;;5050659;28;20263;-78
2024/01/30 07:20:45;;;;;;;19.50;12.68;;;7.70;99.90;;;;;;5038583;28;20443;-78
2024/01/30 07:23:13;;;;;;;21.17;13.75;;;7.70;99.90;;;;;;5051549;28;20376;-78
2024/01/30 07:25:41;;;;;;;17.98;13.93;;;7.80;99.90;;;;;;5053883;28;20100;-78
2024/01/30 07:28:10;;;;;;;19.10;12.75;;;7.80;99.90;;;;;;5053363;28;20325;-78
2024/01/30 07:30:36;;;;;;;19.90;14.43;;;7.80;99.90;;;;;;5055651;28;20094;-78
2024/01/30 07:33:02;;;;;;;18.10;12.95;;;7.80;99.90;;;;;;5035981;28;20050;-77
2024/01/30 07:35:28;;;;;;;19.92;13.60;;;7.80;99.90;;;;;;5055375;28;20028;-77
2024/01/30 07:37:54;;;;;;;18.77;13.15;;;7.70;99.90;;;;;;5035990;28;20538;-77
2024/01/30 07:40:19;;;;;;;20.90;13.43;;;7.80;99.90;;;;;;5054738;28;20036;-77
2024/01/30 07:42:45;;;;;;;19.33;13.75;;;7.80;99.90;;;;;;5053600;28;20099;-77
2024/01/30 07:45:11;;;;;;;19.05;13.82;;;7.80;99.90;;;;;;5056142;28;20044;-77
2024/01/30 07:47:37;;;;;;;22.02;13.10;;;7.70;99.90;;;;;;5051673;28;20476;-77
2024/01/30 07:50:03;;;;;;;20.38;13.27;;;7.80;99.90;;;;;;5053926;28;20080;-77
2024/01/30 07:52:29;;;;;;;20.92;13.45;;;7.80;99.90;;;;;;5057306;28;20273;-77
2024/01/30 07:54:55;;;;;;;18.80;14.55;;;7.90;99.90;;;;;;5058304;28;20526;-77
2024/01/30 07:57:20;;;;;;;18.60;13.57;;;7.90;99.90;;;;;;5056580;28;20504;-77
2024/01/30 07:59:46;;;;;;;18.52;13.43;;;7.80;99.90;;;;;;5058454;28;20032;-77
2024/01/30 08:02:13;;;;;;;19.70;13.05;;;7.90;99.90;;;;;;5056639;28;20075;-77
2024/01/30 08:04:39;;;;;;;19.75;13.02;;;7.90;99.90;;;;;;5037338;28;20076;-77
2024/01/30 08:07:04;;;;;;;19.27;13.38;;;7.90;99.90;;;;;;5058405;28;20126;-77
2024/01/30 08:09:30;;;;;;;21.50;12.88;;;8.00;99.90;;;;;;5041542;28;20059;-77
2024/01/30 08:11:56;;;;;;;18.33;12.93;;;8.00;99.90;;;;;;5056773;28;20282;-77
2024/01/30 08:14:22;;;;;;;16.75;12.27;;;8.00;99.90;;;;;;5058611;28;20436;-77
2024/01/30 08:16:48;;;;;;;17.90;12.68;;;8.00;99.90;;;;;;5056234;28;20040;-77
2024/01/30 08:19:15;;;;;;;17.75;12.40;;;8.10;99.90;;;;;;5052859;28;20040;-77
2024/01/30 08:21:43;;;;;;;20.50;13.18;;;8.10;99.90;;;;;;5041687;28;20483;-77
2024/01/30 08:24:08;;;;;;;19.15;12.98;;;8.00;99.90;;;;;;5040483;28;20522;-77
2024/01/30 08:26:34;;;;;;;21.48;12.18;;;8.10;99.90;;;;;;5069445;28;20057;-77
2024/01/30 08:29:01;;;;;;;20.17;12.98;;;8.20;99.90;;;;;;5038870;28;20455;-77
2024/01/30 08:31:27;;;;;;;17.48;12.98;;;8.20;99.90;;;;;;5056269;28;20694;-77
2024/01/30 08:33:53;;;;;;;19.95;12.93;;;8.20;99.90;;;;;;5038873;28;20221;-77
2024/01/30 08:36:19;;;;;;;19.52;12.57;;;8.30;99.90;;;;;;5054842;28;20106;-77
2024/01/30 08:38:45;;;;;;;17.77;12.48;;;8.30;99.90;;;;;;5038807;28;20115;-77
2024/01/30 08:41:11;;;;;;;17.50;12.80;;;8.30;99.90;;;;;;5058015;28;20215;-77
2024/01/30 08:43:37;;;;;;;20.73;12.57;;;8.40;99.90;;;;;;5039862;28;20044;-77
2024/01/30 08:46:03;;;;;;;17.40;11.82;;;8.40;99.90;;;;;;5055304;28;20040;-77
2024/01/30 08:48:29;;;;;;;17.15;12.68;;;8.60;99.90;;;;;;5037079;28;20105;-77
2024/01/30 08:50:54;;;;;;;17.48;12.35;;;8.60;99.90;;;;;;5040982;28;20534;-77
2024/01/30 08:53:20;;;;;;;18.50;12.45;;;8.60;99.90;;;;;;5039198;28;20044;-77
2024/01/30 08:55:46;;;;;;;19.40;12.50;;;8.60;99.90;;;;;;5058579;28;20040;-77
2024/01/30 08:58:12;;;;;;;15.90;12.55;;;8.70;99.90;;;;;;5057048;28;20059;-77
2024/01/30 09:00:38;;;;;;;18.02;12.30;;;8.70;99.90;;;;;;5041747;28;20033;-77
2024/01/30 09:03:04;;;;;;;15.70;12.05;;;8.70;99.90;;;;;;5054518;28;20047;-77
2024/01/30 09:05:29;;;;;;;20.20;12.13;;;8.70;99.90;;;;;;5056134;28;20124;-77
2024/01/30 09:07:55;;;;;;;18.10;11.23;;;8.80;99.90;;;;;;5056886;28;20139;-77
2024/01/30 09:10:21;;;;;;;15.38;11.68;;;8.90;99.90;;;;;;5056471;28;20095;-77
2024/01/30 09:12:47;;;;;;;17.60;11.90;;;8.90;99.90;;;;;;5055810;28;20044;-77
2024/01/30 09:15:13;;;;;;;16.77;11.45;;;8.90;99.90;;;;;;5057777;28;20036;-77
2024/01/30 09:17:39;;;;;;;15.02;11.52;;;9.00;99.90;;;;;;5039042;28;20035;-77
2024/01/30 09:20:06;;;;;;;17.10;11.32;;;9.00;99.90;;;;;;5039900;28;20032;-77
2024/01/30 09:22:34;;;;;;;14.73;11.68;;;9.00;99.90;;;;;;5057086;28;20097;-77
2024/01/30 09:25:00;;;;;;;16.65;12.43;;;9.00;99.90;;;;;;5040355;28;20058;-77
2024/01/30 09:27:26;;;;;;;16.10;10.80;;;9.00;99.90;;;;;;5058220;28;20048;-77
2024/01/30 09:29:51;;;;;;;15.68;10.80;;;9.10;99.90;;;;;;5056661;28;20082;-77
2024/01/30 09:32:18;;;;;;;16.92;11.50;;;9.20;99.90;;;;;;5056505;28;20154;-77
2024/01/30 09:34:44;;;;;;;17.80;12.23;;;9.30;99.90;;;;;;5036412;28;20131;-77
2024/01/30 09:37:09;;;;;;;15.57;11.50;;;9.30;99.90;;;;;;5055141;28;20037;-77
2024/01/30 09:39:35;;;;;;;16.08;11.15;;;9.40;99.90;;;;;;5055064;28;20051;-77
2024/01/30 09:42:10;;;;;;;18.13;11.23;;;9.50;99.90;;;;;;5057160;28;20117;-77
2024/01/30 09:44:38;;;;;;;16.67;10.63;;;9.60;99.90;;;;;;5058349;28;20126;-77
2024/01/30 09:47:05;;;;;;;16.10;10.90;;;9.60;99.90;;;;;;5040542;28;20055;-77
2024/01/30 09:49:33;;;;;;;16.95;10.77;;;9.70;99.90;;;;;;5041922;28;20046;-77
2024/01/30 09:51:58;;;;;;;18.17;11.00;;;9.80;99.90;;;;;;5056090;28;20048;-77
2024/01/30 09:54:24;;;;;;;16.40;10.75;;;9.90;99.90;;;;;;5057030;28;20044;-77
2024/01/30 09:56:50;;;;;;;15.10;10.48;;;10.00;99.90;;;;;;5057082;28;20221;-77
2024/01/30 09:59:19;;;;;;;15.77;11.27;;;10.10;99.90;;;;;;5053920;28;20622;-77
2024/01/30 10:01:45;;;;;;;21.52;11.18;;;10.10;99.90;;;;;;5053563;28;20336;-77
2024/01/30 10:04:11;;;;;;;15.90;10.75;;;10.10;99.90;;;;;;5054445;28;20040;-77
2024/01/30 10:06:38;;;;;;;17.88;11.68;;;10.10;99.90;;;;;;5039918;28;20045;-77
2024/01/30 10:09:04;;;;;;;13.48;10.20;;;10.10;99.90;;;;;;5038493;28;20041;-77
2024/01/30 10:11:30;;;;;;;18.60;10.43;;;10.20;99.90;;;;;;5055149;28;20074;-77
2024/01/30 10:13:56;;;;;;;15.00;9.95;;;10.10;99.90;;;;;;5053262;28;20048;-77
2024/01/30 10:16:22;;;;;;;13.27;9.75;;;10.10;99.90;;;;;;5055882;28;20051;-77
2024/01/30 10:18:51;;;;;;;16.77;10.85;;;10.20;99.90;;;;;;5032686;28;20068;-77
2024/01/30 10:21:17;;;;;;;14.43;10.13;;;10.20;99.90;;;;;;5058170;28;20122;-77
2024/01/30 10:23:44;;;;;;;15.32;10.45;;;10.30;99.90;;;;;;5057383;28;20546;-77
2024/01/30 10:26:10;;;;;;;16.25;10.63;;;10.30;99.90;;;;;;5040096;28;20067;-77
2024/01/30 10:28:36;;;;;;;20.65;10.98;;;10.30;99.90;;;;;;5038382;28;20044;-77
2024/01/30 10:31:05;;;;;;;15.02;10.45;;;10.40;99.90;;;;;;5054721;28;20047;-77
2024/01/30 10:33:31;;;;;;;18.05;11.23;;;10.40;99.90;;;;;;5037526;28;20344;-77
2024/01/30 10:36:02;;;;;;;19.20;11.55;;;10.40;99.90;;;;;;5056901;28;20041;-77
2024/01/30 10:38:32;;;;;;;18.98;11.02;;;10.40;99.90;;;;;;5038838;28;20107;-77
2024/01/30 10:41:00;;;;;;;17.02;10.70;;;10.30;99.90;;;;;;5072601;28;20033;-77
2024/01/30 10:43:35;;;;;;;17.38;10.93;;;10.40;99.90;;;;;;5040108;28;20031;-76
2024/01/30 10:46:16;;;;;;;17.05;11.23;;;10.40;99.90;;;;;;5039130;28;20040;-77
2024/01/30 10:48:59;;;;;;;17.30;10.45;;;10.40;99.90;;;;;;5054834;28;20047;-77
2024/01/30 10:51:28;;;;;;;18.05;11.13;;;10.40;99.90;;;;;;5036145;28;20525;-77
2024/01/30 10:53:56;;;;;;;20.33;11.70;;;10.40;99.90;;;;;;5038474;28;20076;-77
2024/01/30 10:56:23;;;;;;;19.35;10.85;;;10.50;99.90;;;;;;5052208;28;20341;-77
2024/01/30 10:58:51;;;;;;;17.33;10.98;;;10.50;99.90;;;;;;5036664;28;20181;-76
2024/01/30 11:01:20;;;;;;;16.48;11.55;;;10.50;99.90;;;;;;5036333;28;20174;-77
2024/01/30 11:03:46;;;;;;;17.52;11.70;;;10.50;99.90;;;;;;5037295;28;20408;-77
2024/01/30 11:06:13;;;;;;;20.52;12.25;;;10.50;99.90;;;;;;5037145;28;20487;-77
2024/01/30 11:08:40;;;;;;;20.55;11.60;;;10.60;99.90;;;;;;5052441;28;20110;-77
2024/01/30 11:11:09;;;;;;;23.10;12.20;;;10.60;99.90;;;;;;5052146;28;20530;-77
2024/01/30 11:13:35;;;;;;;16.25;11.52;;;10.60;99.90;;;;;;5036408;28;20041;-77
2024/01/30 11:16:05;;;;;;;14.93;10.95;;;10.60;99.90;;;;;;5052315;28;20041;-77
2024/01/30 11:18:32;;;;;;;20.35;11.73;;;10.70;99.90;;;;;;5053251;28;20051;-77
2024/01/30 11:21:00;;;;;;;16.73;10.88;;;10.70;99.90;;;;;;5053116;28;20055;-77
2024/01/30 11:23:26;;;;;;;18.42;11.85;;;10.70;99.90;;;;;;5052728;28;20114;-76
2024/01/30 11:25:57;;;;;;;19.48;11.27;;;10.70;99.90;;;;;;5054280;28;20272;-77
2024/01/30 11:28:23;;;;;;;14.65;11.07;;;10.60;99.90;;;;;;5057884;28;20383;-76
2024/01/30 11:30:50;;;;;;;19.60;11.82;;;10.60;99.90;;;;;;5058088;28;20041;-77
2024/01/30 11:33:30;;;;;;;18.45;11.57;;;10.60;99.90;;;;;;5055892;28;20399;-77
2024/01/30 11:35:59;;;;;;;20.15;12.18;;;10.60;99.90;;;;;;5040741;28;20059;-76
2024/01/30 11:38:27;;;;;;;18.85;12.57;;;10.60;99.90;;;;;;5058017;28;20197;-76
2024/01/30 11:40:55;;;;;;;19.10;12.70;;;10.60;99.90;;;;;;5059275;28;20039;-77
2024/01/30 11:43:21;;;;;;;16.92;11.88;;;10.60;99.90;;;;;;5057819;28;20120;-77
2024/01/30 11:45:47;;;;;;;17.67;9.50;;;10.60;99.90;;;;;;5041595;28;20109;-76
2024/01/30 11:48:13;;;;;;;16.05;8.43;;;10.40;99.90;;;;;;5056492;28;20610;-77
2024/01/30 11:50:42;;;;;;;20.38;8.73;;;10.30;99.90;;;;;;5057352;28;20561;-76
2024/01/30 11:53:09;;;;;;;19.95;7.80;;;10.30;99.90;;;;;;5042577;28;20040;-76
2024/01/30 11:55:36;;;;;;;16.42;7.15;;;10.20;99.90;;;;;;5039439;28;20090;-76
2024/01/30 11:58:04;;;;;;;12.18;6.50;;;10.20;99.90;;;;;;5056919;28;20111;-76
2024/01/30 12:00:33;;;;;;;16.08;5.88;;;10.10;99.90;;;;;;5042329;28;20032;-76
2024/01/30 12:03:00;;;;;;;11.02;5.53;;;10.00;99.90;;;;;;5055981;28;20047;-76
2024/01/30 12:05:26;;;;;;;11.70;4.70;;;10.00;99.90;;;;;;5059517;28;20071;-76
2024/01/30 12:07:52;;;;;;;8.30;4.50;;;9.90;99.90;;;;;;5057794;28;20406;-76
2024/01/30 12:10:18;;;;;;;13.45;4.85;;;10.00;99.90;;;;;;5058802;28;20043;-76
2024/01/30 12:12:47;;;;;;;10.50;3.97;;;9.90;99.90;;;;;;5037224;28;20040;-76
2024/01/30 12:15:13;;;;;;;10.70;4.10;;;9.80;99.90;;;;;;5056983;28;20045;-76
2024/01/30 12:17:39;;;;;;;9.60;3.88;;;9.80;99.90;;;;;;5054787;28;20049;-76
2024/01/30 12:20:10;;;;;;;11.77;3.95;;;9.80;99.90;;;;;;5058014;28;20032;-76
2024/01/30 12:22:40;;;;;;;7.38;3.47;;;9.80;99.90;;;;;;5041781;28;20041;-76
2024/01/30 12:25:10;;;;;;;7.65;3.40;;;9.80;99.90;;;;;;5058640;28;20136;-77
2024/01/30 12:27:37;;;;;;;8.57;4.00;;;10.00;99.90;;;;;;5042071;28;20044;-77
2024/01/30 12:30:10;;;;;;;9.18;3.30;;;10.10;99.90;;;;;;5042188;28;20446;-77
2024/01/30 12:32:36;;;;;;;5.82;2.95;;;10.10;99.90;;;;;;5039591;28;20091;-77